Time;durP1;ratioP1;P1;durP2;ratioP2;P2;SDS_P1;SDS_P2;PMS_P1;PMS_P2;Temp;Humidity;BMP_temperature;BMP_pressure;BME280_temperature;BME280_humidity;BME280_pressure;Samples;Min_cycle;Max_cycle;Signal;HPM_P1;HPM_P2
2022/08/19 00:02:04;;;;;;;12.25;11.00;;;21.20;84.30;;;;;;4948400;28;20050;-62
2022/08/19 00:04:35;;;;;;;13.30;12.00;;;21.20;84.40;;;;;;4948653;28;20119;-61
2022/08/19 00:07:02;;;;;;;13.15;11.75;;;21.20;84.60;;;;;;4951269;28;20071;-61
2022/08/19 00:09:28;;;;;;;13.50;12.15;;;21.20;84.30;;;;;;4944707;28;20426;-61
2022/08/19 00:11:55;;;;;;;13.50;12.20;;;21.20;84.30;;;;;;4944410;28;20423;-62
2022/08/19 00:14:22;;;;;;;13.77;12.43;;;21.20;84.30;;;;;;4950288;28;20034;-61
2022/08/19 00:16:48;;;;;;;13.45;11.98;;;21.30;84.10;;;;;;4947110;28;20126;-62
2022/08/19 00:19:15;;;;;;;14.20;12.70;;;21.30;84.10;;;;;;4949891;28;20114;-61
2022/08/19 00:21:43;;;;;;;14.13;12.73;;;21.30;84.10;;;;;;4951822;28;20308;-59
2022/08/19 00:24:10;;;;;;;13.80;12.43;;;21.30;84.00;;;;;;4955320;28;20089;-61
2022/08/19 00:26:36;;;;;;;14.90;13.40;;;21.30;84.10;;;;;;4954196;28;20497;-61
2022/08/19 00:29:04;;;;;;;14.77;13.27;;;21.30;84.30;;;;;;4954982;28;20058;-62
2022/08/19 00:31:31;;;;;;;14.13;12.70;;;21.30;84.40;;;;;;4949901;28;20074;-59
2022/08/19 00:33:57;;;;;;;13.27;11.93;;;21.30;84.30;;;;;;4954183;28;20112;-60
2022/08/19 00:36:23;;;;;;;13.55;12.25;;;21.30;84.20;;;;;;4952463;28;20125;-60
2022/08/19 00:38:51;;;;;;;14.57;13.07;;;21.30;84.20;;;;;;4954618;28;20468;-59
2022/08/19 00:41:20;;;;;;;14.48;13.07;;;21.30;84.10;;;;;;4952145;28;20042;-60
2022/08/19 00:44:14;;;;;;;14.85;13.35;;;21.30;84.00;;;;;;4952522;28;20174;-61
2022/08/19 00:46:43;;;;;;;15.93;14.23;;;21.40;84.40;;;;;;4956637;28;20035;-60
2022/08/19 00:49:14;;;;;;;15.35;13.85;;;21.40;83.80;;;;;;4956485;28;20034;-59
2022/08/19 00:51:42;;;;;;;16.45;14.85;;;21.40;83.70;;;;;;4955157;28;20058;-60
2022/08/19 00:54:09;;;;;;;16.17;14.60;;;21.40;83.60;;;;;;4957926;28;20457;-59
2022/08/19 00:56:36;;;;;;;17.63;15.82;;;21.40;83.50;;;;;;4955853;28;20128;-59
2022/08/19 00:59:02;;;;;;;16.52;14.82;;;21.40;83.40;;;;;;4957734;28;20570;-61
2022/08/19 01:01:28;;;;;;;17.42;15.63;;;21.40;83.50;;;;;;4949961;28;20050;-61
2022/08/19 01:03:54;;;;;;;18.05;16.15;;;21.40;83.60;;;;;;4957198;28;20039;-58
2022/08/19 01:06:19;;;;;;;18.10;16.17;;;21.30;83.60;;;;;;4954597;28;20045;-61
2022/08/19 01:08:45;;;;;;;19.63;17.13;;;21.30;83.40;;;;;;4954821;28;20039;-60
2022/08/19 01:11:12;;;;;;;19.48;17.42;;;21.30;83.40;;;;;;4950328;28;20446;-60
2022/08/19 01:13:37;;;;;;;18.85;16.70;;;21.30;83.40;;;;;;4954377;28;20118;-59
2022/08/19 01:16:09;;;;;;;18.77;16.75;;;21.30;83.40;;;;;;4956826;28;20145;-60
2022/08/19 01:18:40;;;;;;;19.38;17.38;;;21.30;83.40;;;;;;4948742;28;20039;-59
2022/08/19 01:21:16;;;;;;;18.13;16.27;;;21.30;83.30;;;;;;4950100;28;20038;-59
2022/08/19 01:23:43;;;;;;;18.88;16.48;;;21.30;83.30;;;;;;4942830;28;20595;-61
2022/08/19 01:26:20;;;;;;;20.73;17.23;;;21.30;82.90;;;;;;4952533;28;20042;-63
2022/08/19 01:28:49;;;;;;;17.88;16.10;;;21.30;82.90;;;;;;4949413;28;20062;-60
2022/08/19 01:31:19;;;;;;;18.77;16.83;;;21.30;82.60;;;;;;4946368;28;20074;-60
2022/08/19 01:33:46;;;;;;;18.58;16.65;;;21.30;82.80;;;;;;4948789;28;20495;-59
2022/08/19 01:36:41;;;;;;;19.27;17.38;;;21.30;82.70;;;;;;4951020;28;20062;-58
2022/08/19 01:39:10;;;;;;;17.08;15.35;;;21.30;82.70;;;;;;4948008;28;20067;-59
2022/08/19 01:41:36;;;;;;;18.33;16.27;;;21.30;82.50;;;;;;4949072;28;20102;-59
2022/08/19 01:44:03;;;;;;;17.33;15.57;;;21.30;82.30;;;;;;4954020;28;20043;-60
2022/08/19 01:46:30;;;;;;;17.83;15.95;;;21.20;82.20;;;;;;4944760;28;20850;-61
2022/08/19 01:48:55;;;;;;;16.75;15.05;;;21.20;82.20;;;;;;4947006;28;20095;-58
2022/08/19 01:51:21;;;;;;;17.27;15.48;;;21.20;82.20;;;;;;4931956;28;20035;-61
2022/08/19 01:53:50;;;;;;;16.65;15.02;;;21.20;82.00;;;;;;4951754;28;20746;-59
2022/08/19 01:56:16;;;;;;;17.33;15.55;;;21.20;81.90;;;;;;4949390;28;20031;-60
2022/08/19 01:59:07;;;;;;;16.45;14.75;;;21.20;81.80;;;;;;4950489;28;20485;-59
2022/08/19 02:01:34;;;;;;;16.10;14.40;;;21.20;81.90;;;;;;4944142;28;20036;-60
2022/08/19 02:04:02;;;;;;;16.05;14.35;;;21.20;81.80;;;;;;4950683;28;20106;-60
2022/08/19 02:06:28;;;;;;;20.02;15.68;;;21.20;81.80;;;;;;4947900;28;20034;-60
2022/08/19 02:08:54;;;;;;;16.73;14.98;;;21.20;81.90;;;;;;4948919;28;20060;-60
2022/08/19 02:11:26;;;;;;;17.80;14.93;;;21.20;81.90;;;;;;4946837;28;20082;-59
2022/08/19 02:13:53;;;;;;;17.15;15.18;;;21.20;81.90;;;;;;4946414;28;20079;-61
2022/08/19 02:16:19;;;;;;;16.42;14.73;;;21.20;81.80;;;;;;4950736;28;20035;-62
2022/08/19 02:18:48;;;;;;;16.85;15.15;;;21.20;81.70;;;;;;4944255;28;20071;-62
2022/08/19 02:21:15;;;;;;;17.10;15.30;;;21.10;81.70;;;;;;4948043;28;20051;-61
2022/08/19 02:23:42;;;;;;;17.05;15.05;;;21.10;81.60;;;;;;4948941;28;20049;-62
2022/08/19 02:26:08;;;;;;;16.35;14.73;;;21.10;81.70;;;;;;4953116;28;21005;-60
2022/08/19 02:28:34;;;;;;;16.58;14.27;;;21.10;81.80;;;;;;4948352;28;20122;-60
2022/08/19 02:31:00;;;;;;;14.57;13.07;;;21.10;81.90;;;;;;4948744;28;20123;-60
2022/08/19 02:33:26;;;;;;;16.48;14.77;;;21.10;81.80;;;;;;4945238;28;20490;-60
2022/08/19 02:35:52;;;;;;;18.60;16.60;;;21.10;81.90;;;;;;4946501;28;20066;-61
2022/08/19 02:38:27;;;;;;;18.55;15.40;;;21.10;81.60;;;;;;4948217;28;20184;-59
2022/08/19 02:40:54;;;;;;;;;;;21.10;81.50;;;;;;4949306;28;20027;-60
2022/08/19 02:43:21;;;;;;;17.02;14.93;;;21.20;81.60;;;;;;4955447;28;19915;-61
2022/08/19 02:45:48;;;;;;;17.50;15.65;;;21.10;81.10;;;;;;4955393;28;20499;-60
2022/08/19 02:48:19;;;;;;;19.88;14.82;;;21.10;81.20;;;;;;4951630;28;20043;-60
2022/08/19 02:50:45;;;;;;;18.05;16.13;;;21.10;81.50;;;;;;4944876;28;20760;-60
2022/08/19 02:53:10;;;;;;;19.25;15.75;;;21.10;81.50;;;;;;4947990;28;20098;-58
2022/08/19 02:55:43;;;;;;;18.33;16.17;;;21.10;81.40;;;;;;4945720;28;20134;-56
2022/08/19 02:58:09;;;;;;;18.30;15.10;;;21.10;81.90;;;;;;4948138;28;20067;-60
2022/08/19 03:00:34;;;;;;;17.98;16.08;;;21.00;81.70;;;;;;4944989;28;20063;-60
2022/08/19 03:03:00;;;;;;;17.48;15.55;;;21.10;81.90;;;;;;4948684;28;20035;-60
2022/08/19 03:05:27;;;;;;;18.83;15.73;;;21.00;81.90;;;;;;4947369;28;20031;-58
2022/08/19 03:07:53;;;;;;;17.45;15.43;;;21.00;82.00;;;;;;4944071;28;22179;-60
2022/08/19 03:10:18;;;;;;;19.30;16.05;;;21.00;82.00;;;;;;4945073;28;20039;-58
2022/08/19 03:12:45;;;;;;;17.40;15.60;;;21.00;82.00;;;;;;4943686;28;20039;-61
2022/08/19 03:15:11;;;;;;;15.95;14.30;;;21.00;82.00;;;;;;4952844;28;20119;-60
2022/08/19 03:17:37;;;;;;;16.95;15.23;;;20.90;82.00;;;;;;4950244;28;20068;-59
2022/08/19 03:20:04;;;;;;;16.20;14.50;;;20.90;82.80;;;;;;4954056;28;20538;-58
2022/08/19 03:22:29;;;;;;;16.30;14.65;;;20.90;82.10;;;;;;4951627;28;20514;-60
2022/08/19 03:24:55;;;;;;;16.60;14.82;;;20.90;82.00;;;;;;4955533;28;20059;-60
2022/08/19 03:27:22;;;;;;;16.00;14.23;;;20.90;82.10;;;;;;4952609;28;20031;-61
2022/08/19 03:29:47;;;;;;;16.98;15.05;;;20.90;83.10;;;;;;4952367;28;20054;-59
2022/08/19 03:32:13;;;;;;;17.88;15.63;;;20.90;82.20;;;;;;4952542;28;20499;-59
2022/08/19 03:34:39;;;;;;;16.67;14.93;;;20.90;82.20;;;;;;4954452;28;20296;-59
2022/08/19 03:37:12;;;;;;;17.38;15.57;;;20.90;82.20;;;;;;4953068;28;20506;-60
2022/08/19 03:39:40;;;;;;;16.63;14.93;;;20.90;82.50;;;;;;4952548;28;20035;-61
2022/08/19 03:42:05;;;;;;;16.40;14.65;;;20.90;82.60;;;;;;4953330;28;20036;-61
2022/08/19 03:44:37;;;;;;;16.17;14.50;;;21.00;82.60;;;;;;4954327;28;20030;-59
2022/08/19 03:47:03;;;;;;;16.48;14.77;;;20.90;82.50;;;;;;4954816;28;20118;-59
2022/08/19 03:49:32;;;;;;;16.42;14.70;;;21.00;82.40;;;;;;4953758;28;20089;-59
2022/08/19 03:52:02;;;;;;;16.77;15.05;;;21.00;82.40;;;;;;4954325;28;20043;-60
2022/08/19 03:54:28;;;;;;;18.27;16.38;;;21.00;82.40;;;;;;4952027;28;20035;-59
2022/08/19 03:56:56;;;;;;;18.73;16.55;;;21.00;82.30;;;;;;4953351;28;20093;-60
2022/08/19 03:59:25;;;;;;;19.05;16.95;;;21.00;82.30;;;;;;4954326;28;20036;-59
2022/08/19 04:01:55;;;;;;;17.85;15.63;;;21.00;82.20;;;;;;4952976;28;20077;-59
2022/08/19 04:04:21;;;;;;;18.90;16.42;;;20.90;82.10;;;;;;4953409;28;20027;-61
2022/08/19 04:06:47;;;;;;;18.23;16.20;;;21.00;82.20;;;;;;4953558;28;20035;-59
2022/08/19 04:09:13;;;;;;;18.73;16.73;;;21.00;82.30;;;;;;4955230;28;20114;-60
2022/08/19 04:11:45;;;;;;;19.65;17.33;;;21.00;82.30;;;;;;4947632;28;20122;-61
2022/08/19 04:14:24;;;;;;;19.55;16.95;;;20.90;82.40;;;;;;4954543;28;20034;-60
2022/08/19 04:16:50;;;;;;;18.20;16.27;;;21.00;82.40;;;;;;4954047;28;20579;-59
2022/08/19 04:19:17;;;;;;;21.05;17.70;;;20.90;82.20;;;;;;4950261;28;20503;-60
2022/08/19 04:21:46;;;;;;;20.95;17.98;;;21.00;82.20;;;;;;4948226;28;20065;-60
2022/08/19 04:24:13;;;;;;;21.80;17.55;;;20.90;82.20;;;;;;4949755;28;20422;-61
2022/08/19 04:26:38;;;;;;;19.98;17.13;;;20.90;82.20;;;;;;4953394;28;20055;-61
2022/08/19 04:29:29;;;;;;;21.30;16.08;;;20.90;82.40;;;;;;4952169;28;20512;-59
2022/08/19 04:31:56;;;;;;;21.60;17.80;;;20.90;82.70;;;;;;4946512;28;20170;-59
2022/08/19 04:34:24;;;;;;;21.73;18.23;;;20.80;82.50;;;;;;4953514;28;20069;-59
2022/08/19 04:36:52;;;;;;;20.13;17.23;;;20.80;82.70;;;;;;4953284;28;20411;-60
2022/08/19 04:42:38;;;;;;;22.83;19.23;;;20.80;83.60;;;;;;4950022;28;20035;-60
2022/08/19 04:44:54;;;;;;;23.03;18.17;;;20.80;82.60;;;;;;4949480;28;20523;-58
2022/08/19 04:47:19;;;;;;;24.45;18.98;;;20.70;82.60;;;;;;4951054;28;20409;-60
2022/08/19 04:49:45;;;;;;;24.83;19.88;;;20.70;82.90;;;;;;4952038;28;20039;-61
2022/08/19 04:52:10;;;;;;;23.10;18.77;;;20.70;82.90;;;;;;4952580;28;20093;-61
2022/08/19 04:54:36;;;;;;;24.35;19.77;;;20.70;82.90;;;;;;4947291;28;20047;-60
2022/08/19 04:57:01;;;;;;;23.35;19.55;;;20.60;83.80;;;;;;4948789;28;20192;-61
2022/08/19 04:59:28;;;;;;;23.33;19.02;;;20.60;83.30;;;;;;4948582;28;20470;-61
2022/08/19 05:01:53;;;;;;;23.83;19.27;;;20.60;83.40;;;;;;4946421;28;20382;-59
2022/08/19 05:04:20;;;;;;;27.30;19.95;;;20.60;83.60;;;;;;4953842;28;20034;-60
2022/08/19 05:06:48;;;;;;;24.85;19.92;;;20.60;83.80;;;;;;4947154;28;20507;-61
2022/08/19 05:09:14;;;;;;;25.25;20.30;;;20.50;83.80;;;;;;4951932;28;20059;-60
2022/08/19 05:11:39;;;;;;;25.58;20.83;;;20.50;83.70;;;;;;4941449;28;20167;-62
2022/08/19 05:14:09;;;;;;;25.00;20.23;;;20.50;84.50;;;;;;4948078;28;20752;-59
2022/08/19 05:16:35;;;;;;;26.83;19.80;;;20.50;83.80;;;;;;4948825;28;20047;-60
2022/08/19 05:24:30;;;;;;;24.20;18.80;;;20.40;84.00;;;;;;4956437;28;20042;-60
2022/08/19 05:26:56;;;;;;;24.33;19.38;;;20.40;84.00;;;;;;4955792;28;20462;-61
2022/08/19 05:29:24;;;;;;;24.73;20.05;;;20.30;84.00;;;;;;4951036;28;20038;-61
2022/08/19 05:31:51;;;;;;;25.67;20.13;;;20.30;84.10;;;;;;4948250;28;20044;-60
2022/08/19 05:34:21;;;;;;;26.25;19.85;;;20.20;84.30;;;;;;4953707;28;20470;-61
2022/08/19 05:36:48;;;;;;;25.77;19.75;;;20.20;84.60;;;;;;4949374;28;20400;-60
2022/08/19 05:39:17;;;;;;;23.65;19.00;;;20.20;84.80;;;;;;4950646;28;20357;-59
2022/08/19 05:41:44;;;;;;;26.15;19.25;;;20.20;84.80;;;;;;4949848;28;20043;-58
2022/08/19 05:44:10;;;;;;;25.85;19.70;;;20.20;84.90;;;;;;4951960;28;20543;-60
2022/08/19 05:46:37;;;;;;;27.73;19.85;;;20.20;85.00;;;;;;4950632;28;20049;-61
2022/08/19 05:49:07;;;;;;;28.73;20.27;;;20.10;84.80;;;;;;4946181;28;20070;-59
2022/08/19 05:51:36;;;;;;;24.42;19.60;;;20.20;84.90;;;;;;4949993;28;20039;-61
2022/08/19 05:54:02;;;;;;;26.17;20.13;;;20.10;85.00;;;;;;4952491;28;20039;-62
2022/08/19 05:56:30;;;;;;;27.30;20.33;;;20.10;85.20;;;;;;4963566;28;20553;-62
2022/08/19 05:58:56;;;;;;;27.95;19.73;;;20.10;85.30;;;;;;4953097;28;20463;-60
2022/08/19 06:01:22;;;;;;;26.42;20.63;;;20.10;85.30;;;;;;4949514;28;20506;-62
2022/08/19 06:03:48;;;;;;;28.08;20.83;;;20.10;85.30;;;;;;4946056;28;20059;-59
2022/08/19 06:06:15;;;;;;;26.45;20.58;;;20.00;85.60;;;;;;4953865;28;20043;-60
2022/08/19 06:08:42;;;;;;;28.20;21.70;;;20.00;85.80;;;;;;4947390;28;20039;-61
2022/08/19 06:11:22;;;;;;;27.27;20.67;;;20.00;85.90;;;;;;4947114;28;20031;-59
2022/08/19 06:13:52;;;;;;;30.00;21.38;;;20.00;86.20;;;;;;4953999;28;20039;-60
2022/08/19 06:16:22;;;;;;;28.15;21.23;;;20.10;86.10;;;;;;4932911;28;20162;-60
2022/08/19 06:18:52;;;;;;;28.73;20.77;;;20.00;86.00;;;;;;4949045;28;20659;-61
2022/08/19 06:21:21;;;;;;;26.95;20.65;;;20.10;86.40;;;;;;4953153;28;20529;-60
2022/08/19 06:23:47;;;;;;;29.02;19.85;;;20.10;86.20;;;;;;4949190;28;20493;-60
2022/08/19 06:26:14;;;;;;;27.02;20.95;;;20.10;86.10;;;;;;4952938;28;20028;-60
2022/08/19 06:28:46;;;;;;;28.38;21.45;;;20.10;85.90;;;;;;4949046;28;20071;-60
2022/08/19 06:31:26;;;;;;;28.35;20.75;;;20.10;85.80;;;;;;4952302;28;20039;-61
2022/08/19 06:33:52;;;;;;;29.33;20.85;;;20.10;86.00;;;;;;4930260;28;20046;-60
2022/08/19 06:36:20;;;;;;;28.67;21.63;;;20.10;85.90;;;;;;4923506;28;20039;-60
2022/08/19 06:38:46;;;;;;;27.67;20.50;;;20.20;85.70;;;;;;4935388;28;20506;-59
2022/08/19 06:41:11;;;;;;;28.70;20.88;;;20.20;85.70;;;;;;4939687;28;20092;-59
2022/08/19 06:43:37;;;;;;;30.40;21.30;;;20.20;85.70;;;;;;4938552;28;20047;-59
2022/08/19 06:46:03;;;;;;;30.65;21.25;;;20.20;85.60;;;;;;4943307;28;20109;-59
2022/08/19 06:48:29;;;;;;;28.50;21.17;;;20.20;85.70;;;;;;4938464;28;20040;-60
2022/08/19 06:50:55;;;;;;;29.02;21.70;;;20.20;85.90;;;;;;4936629;28;20031;-60
2022/08/19 06:53:21;;;;;;;26.73;20.45;;;20.20;85.90;;;;;;4945504;28;20578;-58
2022/08/19 06:55:47;;;;;;;31.48;22.13;;;20.20;85.90;;;;;;4938335;28;20521;-60
2022/08/19 06:58:12;;;;;;;26.35;20.42;;;20.20;85.70;;;;;;4936114;28;20045;-59
2022/08/19 07:00:39;;;;;;;29.88;21.63;;;20.20;85.70;;;;;;4935674;28;20035;-60
2022/08/19 07:03:04;;;;;;;32.75;22.88;;;20.30;85.70;;;;;;4936094;28;20032;-60
2022/08/19 07:05:30;;;;;;;28.55;20.58;;;20.30;85.70;;;;;;4938245;28;20039;-59
2022/08/19 07:07:56;;;;;;;39.15;28.08;;;20.30;85.80;;;;;;4938942;28;20562;-60
2022/08/19 07:10:22;;;;;;;31.17;23.73;;;20.30;86.00;;;;;;4939810;28;20697;-58
2022/08/19 07:12:49;;;;;;;32.30;22.17;;;20.30;85.90;;;;;;4939112;28;20051;-59
2022/08/19 07:15:15;;;;;;;31.30;22.35;;;20.30;85.90;;;;;;4938992;28;20583;-60
2022/08/19 07:17:43;;;;;;;32.25;22.83;;;20.30;85.70;;;;;;4936016;28;20383;-59
2022/08/19 07:20:09;;;;;;;31.60;22.10;;;20.30;85.70;;;;;;4935204;28;20574;-59
2022/08/19 07:22:36;;;;;;;31.60;22.35;;;20.30;85.80;;;;;;4938947;28;20521;-60
2022/08/19 07:25:03;;;;;;;30.80;22.67;;;20.30;86.00;;;;;;4936588;28;20045;-60
2022/08/19 07:27:29;;;;;;;31.55;21.65;;;20.40;86.20;;;;;;4939137;28;20109;-59
2022/08/19 07:29:55;;;;;;;32.10;22.60;;;20.40;86.20;;;;;;4940394;28;20534;-61
2022/08/19 07:32:20;;;;;;;31.02;22.35;;;20.40;86.10;;;;;;4942565;28;20051;-62
2022/08/19 07:34:46;;;;;;;29.38;21.95;;;20.50;86.00;;;;;;4951671;28;20325;-61
2022/08/19 07:37:12;;;;;;;31.38;22.63;;;20.50;85.70;;;;;;4950110;28;20067;-60
2022/08/19 07:39:38;;;;;;;32.78;23.08;;;20.50;85.70;;;;;;4947395;28;20035;-59
2022/08/19 07:42:08;;;;;;;33.40;23.88;;;20.50;85.70;;;;;;4939550;28;20034;-62
2022/08/19 07:44:35;;;;;;;30.33;22.80;;;20.50;85.60;;;;;;4942975;28;20049;-62
2022/08/19 07:47:01;;;;;;;29.67;22.85;;;20.50;85.30;;;;;;4947040;28;20196;-59
2022/08/19 07:49:26;;;;;;;32.22;23.35;;;20.50;86.20;;;;;;4944152;28;20455;-60
2022/08/19 07:52:02;;;;;;;32.60;23.17;;;20.50;85.30;;;;;;4948354;28;20039;-60
2022/08/19 07:54:31;;;;;;;33.03;22.80;;;20.40;85.40;;;;;;4946869;28;20220;-61
2022/08/19 07:56:57;;;;;;;35.00;24.00;;;20.40;85.40;;;;;;4939403;28;20574;-61
2022/08/19 07:59:23;;;;;;;32.80;23.70;;;20.40;85.50;;;;;;4938576;28;20034;-61
2022/08/19 08:01:50;;;;;;;30.45;23.60;;;20.30;85.70;;;;;;4934175;28;20035;-60
2022/08/19 08:09:45;;;;;;;31.08;22.45;;;20.30;86.50;;;;;;4943770;28;19949;-60
2022/08/19 08:12:17;;;;;;;33.72;24.55;;;20.30;85.90;;;;;;4936304;28;20554;-59
2022/08/19 08:14:48;;;;;;;30.83;22.92;;;20.30;85.90;;;;;;4939172;28;20639;-60
2022/08/19 08:17:16;;;;;;;32.45;23.92;;;20.20;86.70;;;;;;4944230;28;20046;-58
2022/08/19 08:19:43;;;;;;;32.25;23.60;;;20.20;86.10;;;;;;4939394;28;20093;-59
2022/08/19 08:23:21;;;;;;;31.30;23.80;;;20.20;86.20;;;;;;4946671;28;20031;-62
2022/08/19 08:24:58;;;;;;;31.95;23.60;;;20.20;86.40;;;;;;4945526;28;20090;-60
2022/08/19 08:27:24;;;;;;;35.45;24.77;;;20.20;86.60;;;;;;4944952;28;20031;-58
2022/08/19 08:29:49;;;;;;;34.63;25.08;;;20.20;86.70;;;;;;4944260;28;20035;-57
2022/08/19 08:32:15;;;;;;;33.85;24.55;;;20.20;86.80;;;;;;4942841;28;20530;-62
2022/08/19 08:34:42;;;;;;;34.40;25.63;;;20.30;86.90;;;;;;4941433;28;20043;-61
2022/08/19 08:37:07;;;;;;;35.78;24.98;;;20.30;87.00;;;;;;4942578;28;20083;-59
2022/08/19 08:39:33;;;;;;;35.55;26.02;;;20.30;87.30;;;;;;4943665;28;20058;-59
2022/08/19 08:42:13;;;;;;;35.50;25.80;;;20.30;87.10;;;;;;4937971;28;20046;-61
2022/08/19 08:45:16;;;;;;;32.45;25.30;;;20.30;87.40;;;;;;4943684;28;20034;-60
2022/08/19 08:47:47;;;;;;;34.13;24.55;;;20.30;87.60;;;;;;4925420;28;20506;-61
2022/08/19 08:50:18;;;;;;;32.92;25.55;;;20.30;87.40;;;;;;4939832;28;20130;-60
2022/08/19 08:52:50;;;;;;;34.42;25.33;;;20.40;87.90;;;;;;4944349;28;20106;-58
2022/08/19 08:55:20;;;;;;;32.58;24.45;;;20.40;88.80;;;;;;4941983;28;20026;-58
2022/08/19 08:57:48;;;;;;;32.63;23.52;;;20.40;88.40;;;;;;4939301;28;20150;-62
2022/08/19 09:00:26;;;;;;;31.83;22.48;;;20.50;87.30;;;;;;4943010;28;20039;-59
2022/08/19 09:02:53;;;;;;;30.63;23.15;;;20.50;86.90;;;;;;4941792;28;20042;-59
2022/08/19 09:05:21;;;;;;;27.58;22.05;;;20.50;86.70;;;;;;4945538;28;20487;-59
2022/08/19 09:08:04;;;;;;;26.65;21.48;;;20.50;86.80;;;;;;4945736;28;20051;-60
2022/08/19 09:10:52;;;;;;;27.70;21.38;;;20.40;86.80;;;;;;4940391;28;20039;-58
2022/08/19 09:13:41;;;;;;;24.88;20.10;;;20.40;87.40;;;;;;4951724;28;20038;-62
2022/08/19 09:16:12;;;;;;;26.48;20.63;;;20.40;87.20;;;;;;4959221;28;20031;-60
2022/08/19 09:18:39;;;;;;;26.98;20.23;;;20.40;87.60;;;;;;4956323;28;20456;-58
2022/08/19 09:21:05;;;;;;;25.60;20.38;;;20.40;87.90;;;;;;4959553;28;20035;-59
2022/08/19 09:23:30;;;;;;;26.17;20.67;;;20.50;87.90;;;;;;4958280;28;20040;-58
2022/08/19 09:25:56;;;;;;;23.20;18.25;;;20.50;87.70;;;;;;4956203;28;20111;-58
2022/08/19 09:28:22;;;;;;;24.67;19.33;;;20.50;87.40;;;;;;4957125;28;20098;-59
2022/08/19 09:30:47;;;;;;;22.92;18.83;;;20.50;87.60;;;;;;4959705;28;20051;-60
2022/08/19 09:33:13;;;;;;;24.95;20.38;;;20.50;87.30;;;;;;4943739;28;20043;-59
2022/08/19 09:35:39;;;;;;;24.42;19.85;;;20.50;87.30;;;;;;4956551;28;20062;-60
2022/08/19 09:38:04;;;;;;;24.30;19.90;;;20.50;87.40;;;;;;4954752;28;20047;-58
2022/08/19 09:40:30;;;;;;;24.38;19.27;;;20.50;87.10;;;;;;4951828;28;20059;-60
2022/08/19 09:42:57;;;;;;;22.75;18.55;;;20.50;87.10;;;;;;4954881;28;20299;-60
2022/08/19 09:45:23;;;;;;;24.55;18.60;;;20.50;87.20;;;;;;4956006;28;20476;-61
2022/08/19 09:47:51;;;;;;;22.15;18.13;;;20.50;87.30;;;;;;4952463;28;20137;-60
2022/08/19 09:50:18;;;;;;;21.60;17.75;;;20.50;87.40;;;;;;4957743;28;20054;-59
2022/08/19 09:52:44;;;;;;;25.35;18.15;;;20.50;87.80;;;;;;4957166;28;20090;-58
2022/08/19 09:55:10;;;;;;;18.92;15.90;;;20.50;87.80;;;;;;4955593;28;20047;-58
2022/08/19 09:57:36;;;;;;;18.30;16.02;;;20.50;87.60;;;;;;4950815;28;20525;-60
2022/08/19 10:00:05;;;;;;;17.98;14.63;;;20.50;87.60;;;;;;4952195;28;20050;-58
2022/08/19 10:02:31;;;;;;;16.77;14.35;;;20.50;87.40;;;;;;4954378;28;20043;-59
2022/08/19 10:07:41;;;;;;;19.48;14.85;;;20.60;87.30;;;;;;4949103;28;20068;-62
2022/08/19 10:10:07;;;;;;;16.95;13.73;;;20.60;87.30;;;;;;4948542;28;20031;-57
2022/08/19 10:12:34;;;;;;;17.30;14.07;;;20.60;87.20;;;;;;4945459;28;20165;-60
2022/08/19 10:15:00;;;;;;;14.90;13.27;;;20.60;87.00;;;;;;4938794;28;20117;-58
2022/08/19 10:17:26;;;;;;;13.98;12.48;;;20.60;87.00;;;;;;4952193;28;20035;-60
2022/08/19 10:19:52;;;;;;;15.07;12.82;;;20.60;87.10;;;;;;4954164;28;20047;-60
2022/08/19 10:22:18;;;;;;;13.32;11.80;;;20.70;87.00;;;;;;4953988;28;20042;-61
2022/08/19 10:24:45;;;;;;;13.02;11.63;;;20.60;86.90;;;;;;4955519;28;20094;-60
2022/08/19 10:27:13;;;;;;;12.10;10.80;;;20.70;86.90;;;;;;4955608;28;20090;-59
2022/08/19 10:29:39;;;;;;;12.23;10.73;;;20.70;86.70;;;;;;4954869;28;20089;-59
2022/08/19 10:32:07;;;;;;;12.07;10.73;;;20.70;86.40;;;;;;4953289;28;20125;-60
2022/08/19 10:34:35;;;;;;;11.30;9.75;;;20.70;86.70;;;;;;4951253;28;20792;-58
2022/08/19 10:37:00;;;;;;;10.30;9.18;;;20.70;86.40;;;;;;4952587;28;20031;-59
2022/08/19 10:39:29;;;;;;;10.70;9.60;;;20.70;86.20;;;;;;4956437;28;20506;-59
2022/08/19 10:41:56;;;;;;;10.43;9.32;;;20.70;86.00;;;;;;4953077;28;20636;-59
2022/08/19 10:44:22;;;;;;;11.00;9.88;;;20.70;86.10;;;;;;4951994;28;20126;-62
2022/08/19 10:46:48;;;;;;;11.30;10.07;;;20.70;85.90;;;;;;4952266;28;20065;-61
2022/08/19 10:49:14;;;;;;;10.70;9.50;;;20.70;85.90;;;;;;4957069;28;20058;-59
2022/08/19 10:56:50;;;;;;;13.02;9.40;;;20.60;87.20;;;;;;4958529;28;20058;-60
2022/08/19 10:57:11;;;;;;;10.05;8.95;;;20.60;86.40;;;;;;4942482;28;20051;-63
2022/08/19 10:59:38;;;;;;;10.60;9.40;;;20.70;86.50;;;;;;4946180;28;20388;-61
2022/08/19 11:02:06;;;;;;;11.32;9.57;;;20.70;86.40;;;;;;4945670;28;20069;-60
2022/08/19 11:04:33;;;;;;;10.88;9.48;;;20.70;86.30;;;;;;4948406;28;20090;-61
2022/08/19 11:06:58;;;;;;;11.23;10.02;;;20.70;86.40;;;;;;4943950;28;20042;-62
2022/08/19 11:09:28;;;;;;;10.68;9.57;;;20.70;86.20;;;;;;4945014;28;20038;-60
2022/08/19 11:11:56;;;;;;;9.85;8.85;;;20.70;86.20;;;;;;4942645;28;20042;-62
2022/08/19 11:14:23;;;;;;;10.38;9.27;;;20.70;86.10;;;;;;4946368;28;20047;-60
2022/08/19 11:16:51;;;;;;;10.77;9.35;;;20.60;86.20;;;;;;4939911;28;20396;-58
2022/08/19 11:19:18;;;;;;;11.55;10.05;;;20.60;86.40;;;;;;4945408;28;20047;-59
2022/08/19 11:21:47;;;;;;;11.57;9.52;;;20.60;86.60;;;;;;4945015;28;20031;-60
2022/08/19 11:24:20;;;;;;;10.57;9.35;;;20.60;86.80;;;;;;4948957;28;20534;-61
2022/08/19 11:26:49;;;;;;;12.95;10.05;;;20.60;87.10;;;;;;4949430;28;20035;-59
2022/08/19 11:29:15;;;;;;;10.85;9.27;;;20.50;87.30;;;;;;4946458;28;20031;-58
2022/08/19 11:31:43;;;;;;;10.90;9.60;;;20.50;88.10;;;;;;4949778;28;20041;-59
2022/08/19 11:34:13;;;;;;;10.57;9.48;;;20.50;87.60;;;;;;4944649;28;20490;-58
2022/08/19 11:36:42;;;;;;;10.63;9.35;;;20.50;87.60;;;;;;4945201;28;20086;-60
2022/08/19 11:39:09;;;;;;;10.52;9.43;;;20.40;87.50;;;;;;4950332;28;20477;-59
2022/08/19 11:41:35;;;;;;;11.73;10.00;;;20.40;87.60;;;;;;4945654;28;20046;-60
2022/08/19 11:44:02;;;;;;;11.55;9.27;;;20.40;87.70;;;;;;4944696;28;20043;-63
2022/08/19 11:46:31;;;;;;;12.35;9.82;;;20.40;87.90;;;;;;4949988;28;20062;-60
2022/08/19 11:49:00;;;;;;;11.30;9.43;;;20.30;88.20;;;;;;4950175;28;20039;-56
2022/08/19 11:51:26;;;;;;;10.07;8.68;;;20.30;88.30;;;;;;4946419;28;20093;-61
2022/08/19 11:53:54;;;;;;;9.73;8.80;;;20.30;88.50;;;;;;4952712;28;20075;-60
2022/08/19 11:56:21;;;;;;;10.38;9.27;;;20.30;88.60;;;;;;4942743;28;20031;-60
2022/08/19 11:58:47;;;;;;;9.27;8.38;;;20.20;88.70;;;;;;4954714;28;20105;-58
2022/08/19 12:01:15;;;;;;;11.15;9.88;;;20.20;88.90;;;;;;4952557;28;20035;-59
2022/08/19 12:03:43;;;;;;;10.15;9.15;;;20.20;89.20;;;;;;4953836;28;20040;-60
2022/08/19 12:06:12;;;;;;;10.73;9.52;;;20.20;89.30;;;;;;4952730;28;20035;-59
2022/08/19 12:08:38;;;;;;;9.30;8.32;;;20.10;89.50;;;;;;4954130;28;20039;-58
2022/08/19 12:11:04;;;;;;;10.48;9.43;;;20.10;89.50;;;;;;4950957;28;20609;-60
2022/08/19 12:13:31;;;;;;;10.75;9.65;;;20.10;89.60;;;;;;4942246;28;20058;-58
2022/08/19 12:15:57;;;;;;;11.23;9.20;;;20.10;89.70;;;;;;4947837;28;22729;-60
2022/08/19 12:18:24;;;;;;;10.10;9.10;;;20.10;89.70;;;;;;4947547;28;20038;-61
2022/08/19 12:20:51;;;;;;;9.55;8.50;;;20.10;89.80;;;;;;4951174;28;20039;-59
2022/08/19 12:23:17;;;;;;;9.65;8.68;;;20.10;89.70;;;;;;4950355;28;20066;-60
2022/08/19 12:25:52;;;;;;;9.38;8.48;;;20.10;89.70;;;;;;4951587;28;20460;-62
2022/08/19 12:28:19;;;;;;;9.45;8.50;;;20.10;89.70;;;;;;4946442;28;20043;-60
2022/08/19 12:30:46;;;;;;;9.35;8.30;;;20.10;89.70;;;;;;4945946;28;20142;-60
2022/08/19 12:33:13;;;;;;;9.80;8.85;;;20.10;89.70;;;;;;4951011;28;20070;-60
2022/08/19 12:35:43;;;;;;;10.23;9.02;;;20.00;90.00;;;;;;4948267;28;20053;-61
2022/08/19 12:38:09;;;;;;;9.52;8.57;;;20.10;90.20;;;;;;4948004;28;20562;-62
2022/08/19 12:40:35;;;;;;;9.98;8.98;;;20.10;90.00;;;;;;4952317;28;20042;-62
2022/08/19 12:43:01;;;;;;;10.63;9.52;;;20.10;90.00;;;;;;4953843;28;20089;-59
2022/08/19 12:45:27;;;;;;;10.98;9.98;;;20.10;90.00;;;;;;4954672;28;21017;-60
2022/08/19 12:47:52;;;;;;;10.93;9.73;;;20.10;90.00;;;;;;4952786;28;20102;-61
2022/08/19 12:50:19;;;;;;;10.52;9.52;;;20.10;90.10;;;;;;4952928;28;20043;-60
2022/08/19 12:52:44;;;;;;;11.27;10.18;;;20.10;90.10;;;;;;4954183;28;20043;-60